地図

経路データ

SID SEASON NUMBER BASIN SUBBASIN NAME ISO_TIME NATURE LAT LON WMO_WIND WMO_PRES WMO_AGENCY TRACK_TYPE DIST2LAND LANDFALL IFLAG USA_AGENCY USA_ATCF_ID USA_LAT USA_LON USA_RECORD USA_STATUS USA_WIND USA_PRES USA_SSHS USA_R34_NE USA_R34_SE USA_R34_SW USA_R34_NW USA_R50_NE USA_R50_SE USA_R50_SW USA_R50_NW USA_R64_NE USA_R64_SE USA_R64_SW USA_R64_NW USA_POCI USA_ROCI USA_RMW USA_EYE TOKYO_LAT TOKYO_LON TOKYO_GRADE TOKYO_WIND TOKYO_PRES TOKYO_R50_DIR TOKYO_R50_LONG TOKYO_R50_SHORT TOKYO_R30_DIR TOKYO_R30_LONG TOKYO_R30_SHORT TOKYO_LAND CMA_LAT CMA_LON CMA_CAT CMA_WIND CMA_PRES HKO_LAT HKO_LON HKO_CAT HKO_WIND HKO_PRES NEWDELHI_LAT NEWDELHI_LON NEWDELHI_GRADE NEWDELHI_WIND NEWDELHI_PRES NEWDELHI_CI NEWDELHI_DP NEWDELHI_POCI REUNION_LAT REUNION_LON REUNION_TYPE REUNION_WIND REUNION_PRES REUNION_TNUM REUNION_CI REUNION_RMW REUNION_R34_NE REUNION_R34_SE REUNION_R34_SW REUNION_R34_NW REUNION_R50_NE REUNION_R50_SE REUNION_R50_SW REUNION_R50_NW REUNION_R64_NE REUNION_R64_SE REUNION_R64_SW REUNION_R64_NW BOM_LAT BOM_LON BOM_TYPE BOM_WIND BOM_PRES BOM_TNUM BOM_CI BOM_RMW BOM_R34_NE BOM_R34_SE BOM_R34_SW BOM_R34_NW BOM_R50_NE BOM_R50_SE BOM_R50_SW BOM_R50_NW BOM_R64_NE BOM_R64_SE BOM_R64_SW BOM_R64_NW BOM_ROCI BOM_POCI BOM_EYE BOM_POS_METHOD BOM_PRES_METHOD NADI_LAT NADI_LON NADI_CAT NADI_WIND NADI_PRES WELLINGTON_LAT WELLINGTON_LON WELLINGTON_WIND WELLINGTON_PRES DS824_LAT DS824_LON DS824_STAGE DS824_WIND DS824_PRES TD9636_LAT TD9636_LON TD9636_STAGE TD9636_WIND TD9636_PRES TD9635_LAT TD9635_LON TD9635_WIND TD9635_PRES TD9635_ROCI NEUMANN_LAT NEUMANN_LON NEUMANN_CLASS NEUMANN_WIND NEUMANN_PRES MLC_LAT MLC_LON MLC_CLASS MLC_WIND MLC_PRES USA_GUST BOM_GUST BOM_GUST_PER REUNION_GUST REUNION_GUST_PER USA_SEAHGT USA_SEARAD_NE USA_SEARAD_SE USA_SEARAD_SW USA_SEARAD_NW STORM_SPEED STORM_DIR
1961285N25165 1961 106 WP MM NOT_NAMED 1961-10-12 00:00:00 TS 24.5000 165.000 main 2620 2578 __O___________ -1 24.5000 165.000 0 1002 9 271
1961285N25165 1961 106 WP MM NOT_NAMED 1961-10-12 03:00:00 TS 24.5055 164.493 main 2578 2537 __P___________ -1 24.5055 164.493 0 1002 9 270
1961285N25165 1961 106 WP MM NOT_NAMED 1961-10-12 06:00:00 TS 24.5000 164.000 main 2537 2495 __O___________ -1 24.5000 164.000 0 1002 9 269
1961285N25165 1961 106 WP MM NOT_NAMED 1961-10-12 09:00:00 TS 24.4846 163.522 main 2495 2454 __P___________ -1 24.4846 163.522 0 1002 9 270
1961285N25165 1961 106 WP MM NOT_NAMED 1961-10-12 12:00:00 TS 24.5000 163.000 main 2454 2405 __O___________ -1 24.5000 163.000 0 1002 10 273
1961285N25165 1961 106 WP MM NOT_NAMED 1961-10-12 15:00:00 TS 24.5475 162.372 main 2405 2335 __P___________ -1 24.5475 162.372 0 1002 12 280
1961285N25165 1961 106 WP MM NOT_NAMED 1961-10-12 18:00:00 TS 24.7000 161.700 main 2335 2266 __O___________ -1 24.7000 161.700 1 29 1002 13 290
1961285N25165 1961 106 WP MM NOT_NAMED 1961-10-12 21:00:00 TS 24.9825 161.028 main 2258 2183 __P___________ -1 24.9825 161.028 1 29 1001 14 301
1961285N25165 1961 106 WP MM NOT_NAMED 1961-10-13 00:00:00 TS 25.4000 160.400 main 2183 2110 __O___________ -1 25.4000 160.400 1 29 1000 14 311
1961285N25165 1961 106 WP MM NOT_NAMED 1961-10-13 03:00:00 TS 25.8898 159.855 main 2110 2030 __P___________ -1 25.8898 159.855 1 29 1000 14 321
1961285N25165 1961 106 WP MM NOT_NAMED 1961-10-13 06:00:00 TS 26.5000 159.400 main 2030 1954 __O___________ -1 26.5000 159.400 1 29 1000 15 331
1961285N25165 1961 106 WP MM NOT_NAMED 1961-10-13 09:00:00 TS 27.2273 159.020 main 1954 1881 __P___________ -1 27.2273 159.020 1 29 1000 16 337
1961285N25165 1961 106 WP MM NOT_NAMED 1961-10-13 12:00:00 TS 28.0000 158.700 main 1881 1816 __O___________ -1 28.0000 158.700 1 29 1000 16 339
1961285N25165 1961 106 WP MM NOT_NAMED 1961-10-13 15:00:00 TS 28.7074 158.385 main 1816 1752 __P___________ -1 28.7074 158.385 1 29 1001 15 339
1961285N25165 1961 106 WP MM NOT_NAMED 1961-10-13 18:00:00 TS 29.4000 158.100 main 1752 1699 __O___________ -1 29.4000 158.100 1 29 1002 15 342
1961285N25165 1961 106 WP MM NOT_NAMED 1961-10-13 21:00:00 TS 30.1224 157.842 main 1691 1640 __P___________ -1 30.1224 157.842 1 1003 15 343
1961285N25165 1961 106 WP MM NOT_NAMED 1961-10-14 00:00:00 TS 30.8000 157.600 main 1640 1592 __O___________ -1 30.8000 157.600 0 1004 13 337
1961285N25165 1961 106 WP MM NOT_NAMED 1961-10-14 03:00:00 TS 31.3349 157.247 main 1583 1550 __P___________ -1 31.3349 157.247 0 1004 12 339
1961285N25165 1961 106 WP MM NOT_NAMED 1961-10-14 06:00:00 ET 31.9000 157.100 main 1550 1543 __O___________ -1 31.9000 157.100 9 1004 13 6
1961285N25165 1961 106 WP MM NOT_NAMED 1961-10-14 09:00:00 ET 32.6434 157.406 main 1552 1520 __P___________ -1 32.6434 157.406 9 1004 18 25
1961285N25165 1961 106 WP MM NOT_NAMED 1961-10-14 12:00:00 ET 33.5000 158.000 main 1520 __O___________ -1 33.5000 158.000 9 1004 20 30

デジタル台風データ・検索

IBTrACS Databaseについて

本データベースは、米国NOAAが公開する1842年以降の世界の熱帯低気圧のベストトラックデータアーカイブInternational Best Track Archive for Climate Stewardship (IBTrACS)を、ウェブで閲覧しやすい形式に変換したものです。

最終更新日:2021-10-21